createdAt,value
2019-03-06T00:00:47.828Z,0.80
2019-03-06T00:03:16.928Z,0.80
2019-03-06T00:05:47.457Z,0.80
2019-03-06T00:08:16.436Z,0.80
2019-03-06T00:10:45.741Z,0.90
2019-03-06T00:13:15.232Z,0.90
2019-03-06T00:15:44.028Z,0.90
2019-03-06T00:18:13.253Z,0.80
2019-03-06T00:20:42.052Z,0.80
2019-03-06T00:23:11.016Z,0.80
2019-03-06T00:25:39.835Z,0.80
2019-03-06T00:28:08.582Z,0.70
2019-03-06T00:30:37.487Z,0.70
2019-03-06T00:33:06.712Z,0.60
2019-03-06T00:35:38.732Z,0.60
2019-03-06T00:38:07.858Z,0.60
2019-03-06T00:40:48.150Z,0.60
2019-03-06T00:43:16.888Z,0.70
2019-03-06T00:45:46.224Z,0.70
2019-03-06T00:48:17.868Z,0.70
2019-03-06T00:50:46.867Z,0.60
2019-03-06T00:53:16.051Z,0.60
2019-03-06T00:55:45.089Z,0.70
2019-03-06T00:58:13.820Z,0.70
2019-03-06T01:00:42.689Z,0.70
2019-03-06T01:03:12.143Z,0.70
2019-03-06T01:05:41.937Z,0.80
2019-03-06T01:08:11.147Z,0.90
2019-03-06T01:10:40.204Z,0.90
2019-03-06T01:13:09.149Z,0.90
2019-03-06T01:15:41.564Z,0.90
2019-03-06T01:18:10.361Z,0.90
2019-03-06T01:20:39.300Z,0.90
2019-03-06T01:23:09.188Z,0.90
2019-03-06T01:25:38.260Z,0.90
2019-03-06T01:28:07.033Z,0.90
2019-03-06T01:30:35.949Z,0.90
2019-03-06T01:33:10.855Z,0.90
2019-03-06T01:35:52.189Z,0.90
2019-03-06T01:38:38.280Z,0.90
2019-03-06T01:41:23.173Z,0.90
2019-03-06T01:44:14.380Z,0.90
2019-03-06T01:46:43.144Z,0.90
2019-03-06T01:49:12.551Z,0.90
2019-03-06T01:51:41.536Z,1.00
2019-03-06T01:54:10.375Z,1.00
2019-03-06T01:56:39.376Z,1.00
2019-03-06T01:59:08.748Z,1.00
2019-03-06T02:01:37.769Z,1.00
2019-03-06T02:04:06.663Z,1.00
2019-03-06T02:06:36.276Z,1.00
2019-03-06T02:09:09.360Z,1.00
2019-03-06T02:11:38.160Z,1.10
2019-03-06T02:14:08.392Z,1.20
2019-03-06T02:16:38.504Z,1.10
2019-03-06T02:19:07.643Z,1.10
2019-03-06T02:21:36.494Z,1.20
2019-03-06T02:24:05.408Z,1.30
2019-03-06T02:26:34.768Z,1.20
2019-03-06T02:29:03.842Z,1.20
2019-03-06T02:31:37.162Z,1.10
2019-03-06T02:34:06.052Z,1.20
2019-03-06T02:36:34.969Z,1.30
2019-03-06T02:39:05.752Z,1.30
2019-03-06T02:41:34.917Z,1.30
2019-03-06T02:44:04.780Z,1.30
2019-03-06T02:46:33.661Z,1.30
2019-03-06T02:49:02.696Z,1.30
2019-03-06T02:51:31.716Z,1.40
2019-03-06T02:54:00.661Z,1.50
2019-03-06T02:56:29.573Z,1.50
2019-03-06T02:59:20.394Z,1.50
2019-03-06T03:01:57.029Z,1.60
2019-03-06T03:04:45.344Z,1.60
2019-03-06T03:07:17.173Z,1.50
2019-03-06T03:09:46.253Z,1.60
2019-03-06T03:12:15.324Z,1.70
2019-03-06T03:14:44.225Z,1.80
2019-03-06T03:17:14.236Z,1.90
2019-03-06T03:19:43.257Z,1.90
2019-03-06T03:22:12.054Z,1.90
2019-03-06T03:24:40.886Z,1.90
2019-03-06T03:27:09.774Z,1.90
2019-03-06T03:29:38.890Z,1.80
2019-03-06T03:32:07.824Z,1.90
2019-03-06T03:34:36.642Z,1.80
2019-03-06T03:37:05.601Z,1.70
2019-03-06T03:39:35.268Z,1.80
2019-03-06T03:42:04.321Z,1.80
2019-03-06T03:44:33.288Z,1.80
2019-03-06T03:47:02.350Z,1.80
2019-03-06T03:49:31.268Z,1.80
2019-03-06T03:52:00.539Z,1.80
2019-03-06T03:54:29.434Z,1.80
2019-03-06T03:56:58.267Z,1.80
2019-03-06T03:59:27.279Z,1.70
2019-03-06T04:01:56.016Z,1.70
2019-03-06T04:04:26.621Z,1.60
2019-03-06T04:06:55.708Z,1.50
2019-03-06T04:09:25.906Z,1.50
2019-03-06T04:11:54.804Z,1.50
2019-03-06T04:14:24.045Z,1.50
2019-03-06T04:16:52.929Z,1.40
2019-03-06T04:19:21.722Z,1.40
2019-03-06T04:21:50.448Z,1.40
2019-03-06T04:24:20.056Z,1.40
2019-03-06T04:26:49.785Z,1.40
2019-03-06T04:29:18.653Z,1.40
2019-03-06T04:31:47.633Z,1.50
2019-03-06T04:34:17.539Z,1.60
2019-03-06T04:36:46.497Z,1.50
2019-03-06T04:39:15.361Z,1.60
2019-03-06T04:41:44.156Z,1.60
2019-03-06T04:44:13.321Z,1.60
2019-03-06T04:46:42.093Z,1.60
2019-03-06T04:49:11.184Z,1.60
2019-03-06T04:51:39.941Z,1.50
2019-03-06T04:54:09.179Z,1.60
2019-03-06T04:56:38.144Z,1.60
2019-03-06T04:59:07.030Z,1.60
2019-03-06T05:01:35.772Z,1.50
2019-03-06T05:04:04.609Z,1.60
2019-03-06T05:06:33.475Z,1.70
2019-03-06T05:09:02.692Z,1.60
2019-03-06T05:11:31.421Z,1.60
2019-03-06T05:14:00.283Z,1.70
2019-03-06T05:17:03.775Z,1.60
2019-03-06T05:19:32.701Z,1.60
2019-03-06T05:22:02.475Z,1.60
2019-03-06T05:24:32.185Z,1.70
2019-03-06T05:27:01.295Z,1.70
2019-03-06T05:29:30.896Z,1.70
2019-03-06T05:32:51.867Z,1.80
2019-03-06T05:36:07.794Z,1.80
2019-03-06T05:39:01.789Z,1.90
2019-03-06T05:41:30.634Z,2.00
2019-03-06T05:43:59.619Z,2.10
2019-03-06T05:46:28.459Z,2.10
2019-03-06T05:48:57.520Z,2.10
2019-03-06T05:51:27.250Z,2.10
2019-03-06T05:53:56.900Z,2.20
2019-03-06T05:56:26.060Z,2.30
2019-03-06T05:58:55.059Z,2.40
2019-03-06T06:01:24.137Z,2.40
2019-03-06T06:03:53.283Z,2.30
2019-03-06T06:06:22.968Z,2.40
2019-03-06T06:08:52.148Z,2.40
2019-03-06T06:11:20.890Z,2.40
2019-03-06T06:13:49.877Z,2.40
2019-03-06T06:16:19.259Z,2.40
2019-03-06T06:18:48.764Z,2.50
2019-03-06T06:21:30.424Z,2.60
2019-03-06T06:24:07.067Z,2.70
2019-03-06T06:26:35.837Z,2.80
2019-03-06T06:29:05.956Z,2.70
2019-03-06T06:31:35.163Z,2.80
2019-03-06T06:34:04.319Z,2.80
2019-03-06T06:36:33.428Z,2.80
2019-03-06T06:39:05.203Z,2.90
2019-03-06T06:41:34.028Z,2.90
2019-03-06T06:44:03.249Z,2.90
2019-03-06T06:46:32.293Z,2.90
2019-03-06T06:49:01.096Z,2.90
2019-03-06T06:52:14.049Z,3.00
2019-03-06T06:55:23.956Z,3.00
2019-03-06T06:58:31.091Z,3.00
2019-03-06T07:01:24.800Z,3.10
2019-03-06T07:04:26.439Z,3.10
2019-03-06T07:07:20.683Z,3.20
2019-03-06T07:10:08.124Z,3.20
2019-03-06T07:12:44.131Z,3.20
2019-03-06T07:15:23.659Z,3.30
2019-03-06T07:18:14.725Z,3.30
2019-03-06T07:21:07.152Z,3.40
2019-03-06T07:23:44.771Z,3.30
2019-03-06T07:26:32.268Z,3.40
2019-03-06T07:29:05.824Z,3.50
2019-03-06T07:32:05.964Z,3.50
2019-03-06T07:34:40.282Z,3.50
2019-03-06T07:37:34.180Z,3.60
2019-03-06T07:40:10.304Z,3.90
2019-03-06T07:43:08.196Z,3.80
2019-03-06T07:46:01.735Z,3.80
2019-03-06T07:48:52.528Z,3.80
2019-03-06T07:51:39.599Z,3.80
2019-03-06T07:54:17.965Z,3.90
2019-03-06T07:56:49.812Z,3.90
2019-03-06T07:59:18.653Z,4.00
2019-03-06T08:01:59.228Z,4.00
2019-03-06T08:04:28.290Z,4.00
2019-03-06T08:07:09.063Z,4.00
2019-03-06T08:09:37.854Z,4.00
2019-03-06T08:12:34.911Z,4.10
2019-03-06T08:15:25.852Z,4.20
2019-03-06T08:18:31.932Z,4.10
2019-03-06T08:21:19.708Z,4.20
2019-03-06T08:23:55.619Z,4.30
2019-03-06T08:26:24.598Z,4.40
2019-03-06T08:28:53.684Z,4.50
2019-03-06T08:31:41.683Z,4.60
2019-03-06T08:34:10.537Z,4.50
2019-03-06T08:36:40.050Z,4.60
2019-03-06T08:39:23.458Z,4.70
2019-03-06T08:41:52.828Z,4.70
2019-03-06T08:44:21.693Z,4.60
2019-03-06T08:47:16.412Z,4.60
2019-03-06T08:49:55.226Z,4.60
2019-03-06T08:52:41.284Z,4.80
2019-03-06T08:55:35.956Z,4.90
2019-03-06T08:58:23.143Z,4.90
2019-03-06T09:01:02.239Z,4.90
2019-03-06T09:03:54.360Z,4.80
2019-03-06T09:06:37.591Z,4.90
2019-03-06T09:09:23.957Z,5.00
2019-03-06T09:12:15.630Z,5.00
2019-03-06T09:15:23.795Z,5.00
2019-03-06T09:18:09.300Z,5.10
2019-03-06T09:20:57.476Z,5.20
2019-03-06T09:23:46.420Z,5.30
2019-03-06T09:26:37.323Z,5.40
2019-03-06T09:29:24.153Z,5.50
2019-03-06T09:32:23.929Z,5.40
2019-03-06T09:35:09.951Z,5.40
2019-03-06T09:38:10.807Z,5.70
2019-03-06T09:40:53.406Z,5.60
2019-03-06T09:43:37.325Z,5.60
2019-03-06T09:46:25.493Z,5.80
2019-03-06T09:49:11.998Z,5.80
2019-03-06T09:52:02.933Z,5.80
2019-03-06T09:54:44.688Z,6.00
2019-03-06T09:57:32.682Z,6.20
2019-03-06T10:00:13.277Z,6.30
2019-03-06T10:02:58.843Z,6.10
2019-03-06T10:05:38.044Z,6.10
2019-03-06T10:08:25.928Z,6.20
2019-03-06T10:11:03.872Z,6.30
2019-03-06T10:13:42.164Z,6.00
2019-03-06T10:16:24.786Z,6.60
2019-03-06T10:19:02.076Z,6.70
2019-03-06T10:21:30.978Z,6.50
2019-03-06T10:23:59.795Z,6.60
2019-03-06T10:26:28.999Z,6.80
2019-03-06T10:28:58.571Z,6.90
2019-03-06T10:31:27.428Z,6.90
2019-03-06T10:33:56.719Z,6.80
2019-03-06T10:36:25.937Z,6.90
2019-03-06T10:38:55.040Z,7.00
2019-03-06T10:41:24.179Z,6.90
2019-03-06T10:43:53.247Z,7.10
2019-03-06T10:46:22.164Z,7.00
2019-03-06T10:48:51.207Z,7.10
2019-03-06T10:51:20.473Z,7.20
2019-03-06T10:53:49.456Z,7.20
2019-03-06T10:56:19.827Z,7.10
2019-03-06T10:58:48.877Z,7.10
2019-03-06T11:01:17.847Z,7.10
2019-03-06T11:04:14.808Z,7.20
2019-03-06T11:06:44.310Z,7.40
2019-03-06T11:09:13.323Z,7.50
2019-03-06T11:11:43.160Z,7.60
2019-03-06T11:14:12.276Z,7.80
2019-03-06T11:16:41.280Z,8.00
2019-03-06T11:19:11.157Z,8.20
2019-03-06T11:21:40.308Z,8.20
2019-03-06T11:24:09.895Z,8.10
2019-03-06T11:26:39.191Z,8.20
2019-03-06T11:29:09.469Z,8.50
2019-03-06T11:31:38.564Z,8.70
2019-03-06T11:34:08.180Z,8.60
2019-03-06T11:36:37.468Z,8.60
2019-03-06T11:39:09.659Z,8.40
2019-03-06T11:41:41.634Z,8.50
2019-03-06T11:44:11.052Z,8.70
2019-03-06T11:46:40.095Z,9.00
2019-03-06T11:49:08.852Z,9.10
2019-03-06T11:51:37.794Z,8.90
2019-03-06T11:54:07.638Z,8.90
2019-03-06T11:56:37.029Z,9.10
2019-03-06T11:59:06.340Z,9.10
2019-03-06T12:01:37.100Z,9.10
2019-03-06T12:04:06.249Z,9.20
2019-03-06T12:06:35.364Z,9.20
2019-03-06T12:09:08.832Z,9.30
2019-03-06T12:11:37.579Z,9.30
2019-03-06T12:14:06.733Z,9.40
2019-03-06T12:16:41.575Z,9.30
2019-03-06T12:19:06.193Z,9.30
2019-03-06T12:21:35.651Z,9.40
2019-03-06T12:24:04.788Z,9.30
2019-03-06T12:26:33.652Z,9.40
2019-03-06T12:29:03.052Z,9.30
2019-03-06T12:31:32.136Z,9.30
2019-03-06T12:34:01.029Z,9.40
2019-03-06T12:36:29.984Z,9.30
2019-03-06T12:38:59.119Z,9.20
2019-03-06T12:41:29.476Z,9.20
2019-03-06T12:44:00.152Z,9.30
2019-03-06T12:46:29.873Z,9.30
2019-03-06T12:49:06.507Z,9.30
2019-03-06T12:51:36.669Z,9.30
2019-03-06T12:54:10.084Z,9.30
2019-03-06T12:56:39.700Z,9.30
2019-03-06T12:59:08.692Z,9.30
2019-03-06T13:01:39.204Z,9.40
2019-03-06T13:04:08.476Z,9.50
2019-03-06T13:06:37.612Z,9.50
2019-03-06T13:09:19.359Z,9.60
2019-03-06T13:11:49.834Z,9.60
2019-03-06T13:14:19.043Z,9.50
2019-03-06T13:16:47.908Z,9.30
2019-03-06T13:19:16.812Z,9.40
2019-03-06T13:21:46.629Z,9.40
2019-03-06T13:24:15.913Z,9.40
2019-03-06T13:26:44.901Z,9.50
2019-03-06T13:29:13.682Z,9.60
2019-03-06T13:31:42.612Z,9.60
2019-03-06T13:34:29.219Z,9.60
2019-03-06T13:36:58.807Z,9.70
2019-03-06T13:39:27.666Z,9.70
2019-03-06T13:41:56.784Z,9.80
2019-03-06T13:44:25.696Z,9.70
2019-03-06T13:46:54.890Z,9.80
2019-03-06T13:49:23.988Z,9.70
2019-03-06T13:51:52.819Z,9.70
2019-03-06T13:54:21.745Z,9.80
2019-03-06T13:56:51.975Z,9.90
2019-03-06T13:59:21.212Z,10.00
2019-03-06T14:01:50.340Z,9.90
2019-03-06T14:04:19.055Z,9.90
2019-03-06T14:06:47.883Z,9.90
2019-03-06T14:09:16.947Z,9.90
2019-03-06T14:11:46.002Z,9.90
2019-03-06T14:14:15.138Z,9.80
2019-03-06T14:16:44.453Z,9.80
2019-03-06T14:19:13.449Z,9.90
2019-03-06T14:21:42.953Z,10.00
2019-03-06T14:24:12.074Z,9.90
2019-03-06T14:26:41.180Z,10.00
2019-03-06T14:29:10.137Z,10.00
2019-03-06T14:31:38.897Z,10.10
2019-03-06T14:34:07.712Z,10.20
2019-03-06T14:36:36.737Z,10.20
2019-03-06T14:39:20.551Z,10.30
2019-03-06T14:41:49.940Z,10.20
2019-03-06T14:44:18.823Z,10.10
2019-03-06T14:46:47.757Z,10.20
2019-03-06T14:49:16.976Z,10.10
2019-03-06T14:51:45.885Z,10.20
2019-03-06T14:54:14.647Z,10.20
2019-03-06T14:56:44.944Z,10.20
2019-03-06T14:59:13.847Z,10.20
2019-03-06T15:01:43.318Z,10.20
2019-03-06T15:04:12.204Z,10.30
2019-03-06T15:06:41.225Z,10.20
2019-03-06T15:09:23.934Z,10.30
2019-03-06T15:11:52.752Z,10.40
2019-03-06T15:14:21.657Z,10.40
2019-03-06T15:16:50.493Z,10.40
2019-03-06T15:19:20.274Z,10.30
2019-03-06T15:21:49.088Z,10.30
2019-03-06T15:24:18.061Z,10.20
2019-03-06T15:26:47.215Z,10.20
2019-03-06T15:29:16.407Z,10.20
2019-03-06T15:31:45.616Z,10.20
2019-03-06T15:34:15.404Z,10.30
2019-03-06T15:36:44.595Z,10.30
2019-03-06T15:39:42.546Z,10.30
2019-03-06T15:42:10.151Z,10.20
2019-03-06T15:44:40.127Z,10.20
2019-03-06T15:47:09.239Z,10.20
2019-03-06T15:49:38.573Z,10.10
2019-03-06T15:52:10.970Z,10.10
2019-03-06T15:54:40.129Z,10.00
2019-03-06T15:57:10.127Z,10.00
2019-03-06T15:59:39.592Z,9.90
2019-03-06T16:02:09.092Z,9.90
2019-03-06T16:04:38.054Z,9.90
2019-03-06T16:07:07.256Z,9.80
2019-03-06T16:09:36.560Z,9.80
2019-03-06T16:12:05.715Z,9.80
2019-03-06T16:14:35.360Z,9.70
2019-03-06T16:17:04.743Z,9.60
2019-03-06T16:19:34.611Z,9.50
2019-03-06T16:22:04.664Z,9.50
2019-03-06T16:24:33.804Z,9.40
2019-03-06T16:27:03.303Z,9.40
2019-03-06T16:29:32.522Z,9.30
2019-03-06T16:32:01.627Z,9.30
2019-03-06T16:34:30.930Z,9.30
2019-03-06T16:37:00.021Z,9.20
2019-03-06T16:39:29.283Z,9.20
2019-03-06T16:41:58.164Z,9.10
2019-03-06T16:44:27.049Z,9.00
2019-03-06T16:46:55.876Z,9.00
2019-03-06T16:49:24.739Z,8.90
2019-03-06T16:51:54.121Z,8.90
2019-03-06T16:54:23.069Z,8.90
2019-03-06T16:56:52.208Z,8.90
2019-03-06T16:59:21.308Z,8.90
2019-03-06T17:01:50.297Z,8.90
2019-03-06T17:04:19.244Z,8.80
2019-03-06T17:06:48.512Z,8.80
2019-03-06T17:09:18.877Z,8.80
2019-03-06T17:11:47.922Z,8.70
2019-03-06T17:14:18.451Z,8.70
2019-03-06T17:16:47.756Z,8.70
2019-03-06T17:19:18.026Z,8.60
2019-03-06T17:21:46.844Z,8.60
2019-03-06T17:24:18.644Z,8.60
2019-03-06T17:26:47.853Z,8.60
2019-03-06T17:29:16.920Z,8.60
2019-03-06T17:31:46.938Z,8.60
2019-03-06T17:34:16.266Z,8.60
2019-03-06T17:36:45.126Z,8.60
2019-03-06T17:39:15.212Z,8.50
2019-03-06T17:41:44.386Z,8.50
2019-03-06T17:44:13.224Z,8.50
2019-03-06T17:46:42.084Z,8.50
2019-03-06T17:49:11.679Z,8.50
2019-03-06T17:51:40.864Z,8.50
2019-03-06T17:54:09.797Z,8.40
2019-03-06T17:56:38.753Z,8.40
2019-03-06T17:59:08.405Z,8.40
2019-03-06T18:01:37.373Z,8.40
2019-03-06T18:04:16.607Z,8.50
2019-03-06T18:06:48.818Z,8.40
2019-03-06T18:09:17.751Z,8.40
2019-03-06T18:11:46.785Z,8.40
2019-03-06T18:14:16.522Z,8.40
2019-03-06T18:16:46.008Z,8.40
2019-03-06T18:19:14.823Z,8.40
2019-03-06T18:21:43.677Z,8.40
2019-03-06T18:24:13.468Z,8.40
2019-03-06T18:26:42.208Z,8.30
2019-03-06T18:29:12.208Z,8.30
2019-03-06T18:31:41.048Z,8.30
2019-03-06T18:34:10.181Z,8.30
2019-03-06T18:36:39.252Z,8.20
2019-03-06T18:39:18.024Z,8.30
2019-03-06T18:41:47.498Z,8.20
2019-03-06T18:44:16.673Z,8.20
2019-03-06T18:46:46.008Z,8.20
2019-03-06T18:49:14.840Z,8.30
2019-03-06T18:51:44.355Z,8.20
2019-03-06T18:54:13.788Z,8.20
2019-03-06T18:56:42.806Z,8.20
2019-03-06T18:59:11.819Z,8.20
2019-03-06T19:01:40.730Z,8.20
2019-03-06T19:04:09.521Z,8.20
2019-03-06T19:06:38.876Z,8.20
2019-03-06T19:09:08.848Z,8.20
2019-03-06T19:11:37.744Z,8.20
2019-03-06T19:14:06.720Z,8.20
2019-03-06T19:16:35.564Z,8.20
2019-03-06T19:19:04.684Z,8.20
2019-03-06T19:21:33.811Z,8.30
2019-03-06T19:24:02.752Z,8.30
2019-03-06T19:26:31.784Z,8.20
2019-03-06T19:29:00.536Z,8.20
2019-03-06T19:31:29.391Z,8.20
2019-03-06T19:33:59.747Z,8.30
2019-03-06T19:36:28.587Z,8.30
2019-03-06T19:38:57.461Z,8.30
2019-03-06T19:41:26.764Z,8.30
2019-03-06T19:43:56.197Z,8.30
2019-03-06T19:46:24.919Z,8.30
2019-03-06T19:48:53.808Z,8.30
2019-03-06T19:51:22.543Z,8.30
2019-03-06T19:53:51.320Z,8.30
2019-03-06T19:56:20.119Z,8.30
2019-03-06T19:58:49.184Z,8.30
2019-03-06T20:01:18.037Z,8.40
2019-03-06T20:03:48.076Z,8.30
2019-03-06T20:06:16.875Z,8.30
2019-03-06T20:08:45.960Z,8.30
2019-03-06T20:11:14.864Z,8.30
2019-03-06T20:13:43.748Z,8.30
2019-03-06T20:16:12.487Z,8.30
2019-03-06T20:18:41.360Z,8.30
2019-03-06T20:21:10.357Z,8.30
2019-03-06T20:23:39.288Z,8.30
2019-03-06T20:26:13.795Z,8.30
2019-03-06T20:28:39.659Z,8.30
2019-03-06T20:31:08.465Z,8.40
2019-03-06T20:33:37.588Z,8.40
2019-03-06T20:36:06.609Z,8.40
2019-03-06T20:38:35.560Z,8.40
2019-03-06T20:41:05.187Z,8.40
2019-03-06T20:43:33.940Z,8.40
2019-03-06T20:46:03.027Z,8.40
2019-03-06T20:48:34.148Z,8.40
2019-03-06T20:51:03.092Z,8.40
2019-03-06T20:53:32.208Z,8.50
2019-03-06T20:56:01.074Z,8.40
2019-03-06T20:58:29.991Z,8.50
2019-03-06T21:00:58.893Z,8.40
2019-03-06T21:03:27.944Z,8.40
2019-03-06T21:05:56.832Z,8.50
2019-03-06T21:08:25.775Z,8.50
2019-03-06T21:10:54.627Z,8.50
2019-03-06T21:13:23.448Z,8.50
2019-03-06T21:15:52.576Z,8.50
2019-03-06T21:18:21.312Z,8.50
2019-03-06T21:20:50.153Z,8.50
2019-03-06T21:23:20.904Z,8.50
2019-03-06T21:25:49.741Z,8.50
2019-03-06T21:28:18.816Z,8.60
2019-03-06T21:30:47.651Z,8.60
2019-03-06T21:33:21.934Z,8.60
2019-03-06T21:35:50.929Z,8.60
2019-03-06T21:38:19.680Z,8.70
2019-03-06T21:40:48.550Z,8.70
2019-03-06T21:43:17.331Z,8.70
2019-03-06T21:45:46.212Z,8.60
2019-03-06T21:48:15.144Z,8.60
2019-03-06T21:50:44.117Z,8.60
2019-03-06T21:53:13.499Z,8.60
2019-03-06T21:55:42.284Z,8.70
2019-03-06T21:58:11.176Z,8.70
2019-03-06T22:00:40.053Z,8.70
2019-03-06T22:03:08.944Z,8.70
2019-03-06T22:05:37.655Z,8.70
2019-03-06T22:08:06.802Z,8.80
2019-03-06T22:10:35.786Z,8.80
2019-03-06T22:13:04.571Z,8.90
2019-03-06T22:15:33.324Z,8.80
2019-03-06T22:18:02.208Z,8.90
2019-03-06T22:20:30.969Z,8.90
2019-03-06T22:23:00.269Z,8.90
2019-03-06T22:25:29.078Z,8.90
2019-03-06T22:27:57.991Z,9.00
2019-03-06T22:30:26.840Z,9.00
2019-03-06T22:32:55.924Z,8.90
2019-03-06T22:35:24.700Z,8.90
2019-03-06T22:37:53.436Z,8.90
2019-03-06T22:40:22.535Z,9.00
2019-03-06T22:42:51.574Z,8.90
2019-03-06T22:45:20.594Z,9.00
2019-03-06T22:47:49.384Z,9.00
2019-03-06T22:50:18.666Z,9.00
2019-03-06T22:52:47.952Z,9.00
2019-03-06T22:55:17.031Z,9.10
2019-03-06T22:57:45.918Z,9.10
2019-03-06T23:00:49.975Z,9.10
2019-03-06T23:03:19.857Z,9.10
2019-03-06T23:05:48.893Z,9.10
2019-03-06T23:08:17.763Z,9.10
2019-03-06T23:10:46.682Z,9.10
2019-03-06T23:13:15.412Z,9.20
2019-03-06T23:15:44.497Z,9.20
2019-03-06T23:18:13.333Z,9.20
2019-03-06T23:20:42.820Z,9.10
2019-03-06T23:23:11.821Z,9.10
2019-03-06T23:25:40.568Z,9.20
2019-03-06T23:28:09.555Z,9.20
2019-03-06T23:30:38.615Z,9.30
2019-03-06T23:33:07.492Z,9.30
2019-03-06T23:35:36.269Z,9.30
2019-03-06T23:38:05.078Z,9.30
2019-03-06T23:40:34.325Z,9.40
2019-03-06T23:43:03.433Z,9.50
2019-03-06T23:45:33.264Z,9.60
2019-03-06T23:48:02.355Z,9.60
2019-03-06T23:50:31.136Z,9.70
2019-03-06T23:53:07.223Z,9.80
2019-03-06T23:55:36.516Z,9.80
2019-03-06T23:58:05.428Z,9.80
